Time;durP1;ratioP1;P1;durP2;ratioP2;P2;SDS_P1;SDS_P2;PMS_P1;PMS_P2;Temp;Humidity;BMP_temperature;BMP_pressure;BME280_temperature;BME280_humidity;BME280_pressure;Samples;Min_cycle;Max_cycle;Signal;HPM_P1;HPM_P2
2023/06/12 00:02:07;;;;;;;6.40;3.22;;;16.30;71.40;;;;;;4771545;29;20057;-73
2023/06/12 00:04:33;;;;;;;4.60;2.80;;;16.30;71.70;;;;;;4782564;29;20077;-73
2023/06/12 00:07:01;;;;;;;5.70;2.72;;;16.20;71.90;;;;;;4794818;29;20130;-74
2023/06/12 00:09:29;;;;;;;6.07;2.78;;;16.20;72.10;;;;;;4780184;29;20742;-73
2023/06/12 00:11:54;;;;;;;4.05;2.58;;;16.10;72.30;;;;;;4791237;29;20134;-73
2023/06/12 00:14:20;;;;;;;11.07;3.28;;;16.10;72.50;;;;;;4784948;29;20380;-76
2023/06/12 00:16:47;;;;;;;4.55;2.80;;;16.00;72.80;;;;;;4780914;29;20894;-74
2023/06/12 00:19:13;;;;;;;9.13;2.90;;;15.90;73.10;;;;;;4780550;29;20059;-72
2023/06/12 00:21:39;;;;;;;11.35;2.53;;;15.90;73.30;;;;;;4791602;29;20493;-72
2023/06/12 00:24:08;;;;;;;3.85;2.55;;;15.90;73.60;;;;;;4790257;29;20553;-72
2023/06/12 00:26:36;;;;;;;5.50;2.72;;;15.80;73.80;;;;;;4790358;29;20051;-75
2023/06/12 00:29:02;;;;;;;6.85;2.67;;;15.80;74.20;;;;;;4795783;29;20050;-75
2023/06/12 00:31:29;;;;;;;7.57;2.42;;;15.70;74.30;;;;;;4794629;29;20369;-74
2023/06/12 00:33:55;;;;;;;5.82;2.67;;;15.70;74.60;;;;;;4777625;29;20054;-75
2023/06/12 00:36:20;;;;;;;8.27;2.60;;;15.60;75.00;;;;;;4793857;29;20136;-74
2023/06/12 00:38:46;;;;;;;6.03;2.83;;;15.60;75.20;;;;;;4794095;29;20100;-74
2023/06/12 00:41:12;;;;;;;10.02;2.80;;;15.50;75.50;;;;;;4791518;29;20050;-74
2023/06/12 00:43:38;;;;;;;8.05;2.95;;;15.40;75.70;;;;;;4793248;29;20360;-76
2023/06/12 00:46:05;;;;;;;5.47;2.63;;;15.40;76.10;;;;;;4789364;29;20245;-73
2023/06/12 00:48:32;;;;;;;6.15;2.80;;;15.30;76.30;;;;;;4774699;29;20068;-74
2023/06/12 00:50:59;;;;;;;5.68;2.50;;;15.30;76.60;;;;;;4788862;29;20050;-74
2023/06/12 00:53:26;;;;;;;5.40;2.60;;;15.30;76.70;;;;;;4790813;29;20093;-74
2023/06/12 00:55:51;;;;;;;5.30;2.47;;;15.30;76.90;;;;;;4764531;29;20069;-74
2023/06/12 00:58:17;;;;;;;8.93;2.75;;;15.30;76.90;;;;;;4786945;29;20519;-75
2023/06/12 01:00:44;;;;;;;8.02;2.63;;;15.30;77.00;;;;;;4781816;29;20053;-74
2023/06/12 01:03:12;;;;;;;6.72;2.83;;;15.30;77.10;;;;;;4778717;29;20058;-75
2023/06/12 01:05:43;;;;;;;6.72;2.83;;;15.30;77.30;;;;;;4792525;29;20195;-78
2023/06/12 01:09:08;;;;;;;6.95;2.90;;;15.20;77.40;;;;;;4785035;29;20054;-76
2023/06/12 01:11:36;;;;;;;8.85;2.53;;;15.20;78.00;;;;;;4728421;30;20135;-75
2023/06/12 01:14:02;;;;;;;7.47;2.80;;;15.10;77.70;;;;;;4784818;29;20581;-78
2023/06/12 01:16:28;;;;;;;10.48;2.58;;;15.00;78.00;;;;;;4786850;29;20051;-74
2023/06/12 01:18:55;;;;;;;9.52;2.58;;;15.00;78.30;;;;;;4787168;29;20054;-75
2023/06/12 01:21:23;;;;;;;17.25;3.78;;;14.90;78.60;;;;;;4795332;29;20050;-75
2023/06/12 01:24:27;;;;;;;13.35;3.42;;;14.90;78.70;;;;;;4780387;29;20057;-77
2023/06/12 01:26:58;;;;;;;18.88;3.60;;;14.90;79.40;;;;;;4780839;29;20473;-75
2023/06/12 01:30:02;;;;;;;8.02;3.25;;;14.90;79.00;;;;;;4791855;29;20108;-74
2023/06/12 01:32:29;;;;;;;16.20;3.30;;;14.90;80.00;;;;;;4785614;29;20102;-75
2023/06/12 01:35:07;;;;;;;19.40;3.20;;;14.90;79.30;;;;;;4776355;29;20061;-76
2023/06/12 01:37:37;;;;;;;12.07;2.88;;;14.90;79.80;;;;;;4770195;29;20131;-76
2023/06/12 01:40:08;;;;;;;12.25;3.20;;;14.80;79.70;;;;;;4806483;29;20053;-76
2023/06/12 01:42:34;;;;;;;10.32;3.38;;;14.80;80.10;;;;;;4787156;29;20043;-75
2023/06/12 01:45:00;;;;;;;8.05;2.47;;;14.70;80.40;;;;;;4789195;29;20126;-75
2023/06/12 01:47:26;;;;;;;7.60;3.05;;;14.70;80.80;;;;;;4786106;29;20404;-75
2023/06/12 01:49:51;;;;;;;6.95;2.65;;;14.60;81.00;;;;;;4794353;29;20133;-75
2023/06/12 01:52:18;;;;;;;8.13;2.45;;;14.60;81.30;;;;;;4778847;29;20073;-74
2023/06/12 01:54:49;;;;;;;7.28;2.05;;;14.50;81.50;;;;;;4790273;29;20054;-75
2023/06/12 01:57:19;;;;;;;6.53;2.35;;;14.50;81.90;;;;;;4773444;29;20161;-74
2023/06/12 01:59:48;;;;;;;12.38;2.65;;;14.50;82.20;;;;;;4795403;29;20046;-75
2023/06/12 02:02:16;;;;;;;8.90;2.22;;;14.50;82.60;;;;;;4789860;29;20047;-74
2023/06/12 02:04:42;;;;;;;7.72;2.38;;;14.50;82.80;;;;;;4776058;29;20202;-75
2023/06/12 02:07:10;;;;;;;11.40;3.83;;;14.60;83.10;;;;;;4772530;29;20066;-75
2023/06/12 02:09:35;;;;;;;13.55;2.83;;;14.60;82.90;;;;;;4774706;29;20061;-74
2023/06/12 02:12:01;;;;;;;8.43;2.33;;;14.70;83.00;;;;;;4785696;29;20047;-73
2023/06/12 02:14:27;;;;;;;10.55;2.88;;;14.70;82.90;;;;;;4770591;29;20645;-75
2023/06/12 02:16:54;;;;;;;15.48;3.72;;;14.70;83.10;;;;;;4789904;29;20141;-73
2023/06/12 02:19:25;;;;;;;8.45;2.95;;;14.60;83.20;;;;;;4770467;29;20074;-74
2023/06/12 02:21:54;;;;;;;8.60;2.33;;;14.50;83.50;;;;;;4800578;29;20768;-74
2023/06/12 02:24:24;;;;;;;6.28;2.85;;;14.50;83.60;;;;;;4793152;29;20334;-74
2023/06/12 02:26:50;;;;;;;9.82;2.58;;;14.40;83.70;;;;;;4786785;29;20078;-74
2023/06/12 02:29:16;;;;;;;7.63;2.85;;;14.30;84.10;;;;;;4791824;29;20471;-76
2023/06/12 02:31:42;;;;;;;4.47;2.72;;;14.30;84.50;;;;;;4794548;29;20114;-76
2023/06/12 02:34:07;;;;;;;7.60;2.63;;;14.20;84.90;;;;;;4791408;29;20055;-75
2023/06/12 02:36:42;;;;;;;7.80;2.67;;;14.20;85.10;;;;;;4793278;29;20050;-76
2023/06/12 02:39:12;;;;;;;6.55;2.55;;;14.20;85.40;;;;;;4791655;29;20046;-75
2023/06/12 02:41:40;;;;;;;11.02;3.05;;;14.10;85.80;;;;;;4792562;29;20400;-78
2023/06/12 02:44:06;;;;;;;8.43;2.35;;;14.10;86.20;;;;;;4793527;29;20063;-76
2023/06/12 02:46:31;;;;;;;7.32;2.80;;;14.00;86.70;;;;;;4799201;29;20057;-74
2023/06/12 02:48:57;;;;;;;8.70;3.17;;;14.00;87.00;;;;;;4796628;29;20199;-74
2023/06/12 02:51:23;;;;;;;8.93;2.75;;;14.00;87.50;;;;;;4798803;29;20066;-76
2023/06/12 02:53:49;;;;;;;4.68;2.97;;;14.00;87.80;;;;;;4796681;29;20549;-76
2023/06/12 02:56:14;;;;;;;5.50;2.55;;;14.00;88.10;;;;;;4782197;29;20054;-75
2023/06/12 02:58:40;;;;;;;6.20;2.53;;;14.10;88.20;;;;;;4795589;29;20263;-75
2023/06/12 03:01:07;;;;;;;9.10;3.10;;;14.10;88.30;;;;;;4797296;29;20507;-75
2023/06/12 03:03:35;;;;;;;4.95;2.83;;;14.00;88.40;;;;;;4806815;29;20155;-75
2023/06/12 03:06:01;;;;;;;6.10;2.80;;;12.60;87.80;;;;;;4782567;29;20058;-75
2023/06/12 03:08:27;;;;;;;7.97;2.80;;;14.00;88.80;;;;;;4780286;29;20066;-76
2023/06/12 03:10:53;;;;;;;9.48;3.38;;;13.90;89.10;;;;;;4782530;29;20050;-75
2023/06/12 03:13:20;;;;;;;5.45;2.90;;;13.90;89.40;;;;;;4802498;29;20097;-75
2023/06/12 03:15:46;;;;;;;8.68;3.33;;;13.80;89.60;;;;;;4802313;29;20069;-77
2023/06/12 03:18:11;;;;;;;7.00;3.67;;;13.80;90.00;;;;;;4799069;29;20061;-74
2023/06/12 03:20:37;;;;;;;6.65;3.17;;;13.70;90.20;;;;;;4798366;29;20048;-75
2023/06/12 03:23:03;;;;;;;6.70;2.90;;;13.70;90.40;;;;;;4794230;29;20387;-74
2023/06/12 03:25:28;;;;;;;5.10;2.35;;;13.70;90.50;;;;;;4795253;29;20158;-76
2023/06/12 03:27:55;;;;;;;5.72;2.88;;;13.70;90.60;;;;;;4789054;29;20137;-78
2023/06/12 03:30:21;;;;;;;6.60;2.88;;;13.70;90.60;;;;;;4793921;29;20138;-77
2023/06/12 03:32:46;;;;;;;7.07;2.60;;;13.70;90.80;;;;;;4789292;29;20121;-78
2023/06/12 03:35:13;;;;;;;7.57;3.13;;;13.70;90.90;;;;;;4788604;29;20054;-76
2023/06/12 03:37:38;;;;;;;13.73;4.18;;;13.70;91.00;;;;;;4782387;29;20043;-75
2023/06/12 03:40:05;;;;;;;6.75;2.92;;;13.70;91.10;;;;;;4781005;29;20801;-75
2023/06/12 03:42:31;;;;;;;8.77;4.05;;;13.70;91.20;;;;;;4796633;29;20061;-76
2023/06/12 03:44:56;;;;;;;6.60;2.90;;;13.70;91.20;;;;;;4796426;29;20082;-76
2023/06/12 03:47:25;;;;;;;8.88;3.00;;;13.70;91.20;;;;;;4793391;29;20055;-75
2023/06/12 03:49:51;;;;;;;7.70;3.72;;;13.70;91.30;;;;;;4787533;29;20062;-75
2023/06/12 03:52:17;;;;;;;6.57;3.35;;;13.70;91.40;;;;;;4792617;29;20400;-75
2023/06/12 03:54:43;;;;;;;5.93;2.88;;;13.70;91.50;;;;;;4794229;29;20584;-75
2023/06/12 03:57:10;;;;;;;4.97;3.13;;;13.70;91.60;;;;;;4790237;29;20164;-74
2023/06/12 03:59:35;;;;;;;5.43;2.88;;;13.70;91.60;;;;;;4793556;29;20051;-74
2023/06/12 04:02:02;;;;;;;6.90;3.05;;;13.70;91.80;;;;;;4773927;29;20748;-75
2023/06/12 04:04:27;;;;;;;6.88;3.15;;;11.40;91.30;;;;;;4776934;29;20134;-74
2023/06/12 04:06:54;;;;;;;6.10;3.00;;;13.80;92.00;;;;;;4787412;29;20551;-75
2023/06/12 04:09:21;;;;;;;6.05;3.08;;;13.90;92.30;;;;;;4774500;29;20173;-74
2023/06/12 04:11:46;;;;;;;6.43;3.10;;;13.90;92.20;;;;;;4795333;29;20056;-76
2023/06/12 04:14:12;;;;;;;7.25;3.30;;;14.00;92.10;;;;;;4795705;29;20275;-75
2023/06/12 04:16:38;;;;;;;6.45;3.00;;;14.20;92.10;;;;;;4793298;29;20058;-75
2023/06/12 04:19:05;;;;;;;6.72;3.28;;;14.50;92.20;;;;;;4785302;29;20656;-75
2023/06/12 04:21:35;;;;;;;7.70;4.10;;;14.90;92.10;;;;;;4790492;29;20051;-74
2023/06/12 04:24:03;;;;;;;6.03;2.85;;;15.60;91.90;;;;;;4793147;29;20065;-75
2023/06/12 04:26:34;;;;;;;5.15;2.83;;;16.20;91.10;;;;;;4773742;29;20066;-76
2023/06/12 04:29:02;;;;;;;10.18;3.33;;;16.80;90.30;;;;;;4785877;29;20053;-77
2023/06/12 04:31:29;;;;;;;8.02;3.30;;;19.60;90.10;;;;;;4782698;29;20062;-75
2023/06/12 04:33:55;;;;;;;7.05;3.00;;;17.80;87.20;;;;;;4784447;29;20086;-75
2023/06/12 04:36:22;;;;;;;12.18;3.40;;;18.20;85.70;;;;;;4785238;29;20146;-75
2023/06/12 04:38:52;;;;;;;9.30;3.08;;;18.50;84.00;;;;;;4774444;29;20062;-75
2023/06/12 04:41:24;;;;;;;8.77;3.20;;;18.90;82.70;;;;;;4795388;29;20050;-75
2023/06/12 04:43:51;;;;;;;7.25;2.63;;;19.10;81.40;;;;;;4793938;29;20171;-76
2023/06/12 04:46:20;;;;;;;10.20;4.10;;;19.10;80.80;;;;;;4794446;29;20182;-77
2023/06/12 04:48:47;;;;;;;8.75;2.88;;;19.10;79.80;;;;;;4777246;29;20069;-76
2023/06/12 04:51:13;;;;;;;5.28;3.10;;;18.80;79.50;;;;;;4778255;29;20059;-75
2023/06/12 04:53:43;;;;;;;8.45;3.17;;;18.50;79.80;;;;;;4783351;29;20136;-76
2023/06/12 04:56:09;;;;;;;7.15;2.72;;;18.20;80.40;;;;;;4791037;29;20058;-75
2023/06/12 04:58:41;;;;;;;4.40;3.08;;;17.90;81.10;;;;;;4789898;29;20529;-75
2023/06/12 05:01:07;;;;;;;6.95;3.15;;;17.70;81.60;;;;;;4771052;29;20053;-74
2023/06/12 05:03:33;;;;;;;7.57;3.25;;;17.70;82.30;;;;;;4788097;29;20059;-75
2023/06/12 05:06:00;;;;;;;11.38;3.45;;;17.70;82.60;;;;;;4787084;29;20052;-75
2023/06/12 05:08:25;;;;;;;6.85;3.30;;;17.60;82.70;;;;;;4795740;29;20746;-75
2023/06/12 05:10:52;;;;;;;7.05;3.38;;;17.70;83.00;;;;;;4795844;29;20053;-76
2023/06/12 05:13:18;;;;;;;7.35;3.08;;;17.90;82.90;;;;;;4791216;29;20862;-78
2023/06/12 05:15:43;;;;;;;6.30;2.92;;;18.10;82.30;;;;;;4793425;29;20369;-76
2023/06/12 05:18:09;;;;;;;6.15;3.35;;;18.20;82.00;;;;;;4789741;29;20055;-74
2023/06/12 05:20:36;;;;;;;7.97;3.53;;;18.30;81.90;;;;;;4792276;29;20199;-74
2023/06/12 05:23:02;;;;;;;8.90;3.65;;;18.30;81.50;;;;;;4788691;29;20216;-75
2023/06/12 05:25:28;;;;;;;6.20;2.85;;;18.30;80.90;;;;;;4779809;29;20651;-74
2023/06/12 05:27:54;;;;;;;8.75;3.90;;;18.30;81.00;;;;;;4782551;29;20047;-75
2023/06/12 05:30:20;;;;;;;7.47;3.53;;;18.20;81.00;;;;;;4792694;29;20608;-75
2023/06/12 05:32:46;;;;;;;6.10;3.17;;;18.10;81.20;;;;;;4784144;29;20377;-76
2023/06/12 05:35:12;;;;;;;5.40;3.38;;;18.10;81.40;;;;;;4795066;29;20058;-76
2023/06/12 05:37:38;;;;;;;8.23;3.88;;;18.00;81.70;;;;;;4794334;29;20067;-75
2023/06/12 05:40:05;;;;;;;10.00;3.83;;;18.10;81.80;;;;;;4794595;29;20042;-74
2023/06/12 05:42:31;;;;;;;8.68;3.78;;;18.30;81.70;;;;;;4792077;29;20093;-78
2023/06/12 05:44:57;;;;;;;8.05;4.00;;;19.10;81.10;;;;;;4784181;29;20154;-74
2023/06/12 05:47:23;;;;;;;6.57;3.88;;;20.20;79.00;;;;;;4790156;29;20686;-74
2023/06/12 05:49:49;;;;;;;6.80;4.03;;;20.90;77.10;;;;;;4802538;29;20061;-74
2023/06/12 05:52:15;;;;;;;8.90;4.03;;;21.90;74.80;;;;;;4785966;29;20130;-76
2023/06/12 05:54:41;;;;;;;9.05;3.35;;;22.20;73.20;;;;;;4792009;29;20153;-76
2023/06/12 05:57:07;;;;;;;7.22;3.88;;;23.40;71.40;;;;;;4790365;29;20449;-76
2023/06/12 05:59:33;;;;;;;6.30;3.92;;;24.50;68.80;;;;;;4792878;29;20054;-73
2023/06/12 06:01:58;;;;;;;9.93;3.40;;;25.60;66.10;;;;;;4790680;29;20462;-79
2023/06/12 06:04:24;;;;;;;10.60;3.78;;;26.50;63.90;;;;;;4789154;29;20070;-79
2023/06/12 06:06:52;;;;;;;10.18;3.63;;;26.80;61.70;;;;;;4797705;29;20133;-77
2023/06/12 06:09:18;;;;;;;8.27;2.90;;;28.00;59.80;;;;;;4794302;29;20061;-75
2023/06/12 06:11:43;;;;;;;5.70;3.08;;;28.80;58.10;;;;;;4786005;29;20050;-75
2023/06/12 06:14:09;;;;;;;6.97;2.95;;;29.50;56.40;;;;;;4791148;29;20704;-74
2023/06/12 06:16:35;;;;;;;6.85;3.47;;;30.30;55.40;;;;;;4786985;29;20293;-81
2023/06/12 06:19:01;;;;;;;9.35;3.60;;;30.80;53.80;;;;;;4784846;29;20706;-76
2023/06/12 06:21:27;;;;;;;7.00;3.22;;;31.40;52.90;;;;;;4784172;29;20055;-74
2023/06/12 06:23:52;;;;;;;7.13;3.38;;;31.70;51.50;;;;;;4787160;29;20362;-75
2023/06/12 06:26:18;;;;;;;7.68;2.95;;;32.20;50.80;;;;;;4794528;29;20046;-82
2023/06/12 06:28:44;;;;;;;6.75;2.80;;;32.80;50.00;;;;;;4799266;29;20042;-75
2023/06/12 06:31:10;;;;;;;8.13;3.80;;;33.30;49.30;;;;;;4796408;29;20628;-75
2023/06/12 06:33:36;;;;;;;5.32;3.10;;;33.80;48.50;;;;;;4793871;29;20591;-75
2023/06/12 06:36:02;;;;;;;7.10;3.05;;;34.10;47.60;;;;;;4793566;29;20050;-80
2023/06/12 06:38:28;;;;;;;7.60;3.40;;;34.60;47.10;;;;;;4791937;29;20042;-76
2023/06/12 06:40:54;;;;;;;6.22;3.08;;;35.20;46.20;;;;;;4789772;29;20062;-76
2023/06/12 06:43:20;;;;;;;6.93;3.30;;;35.80;46.00;;;;;;4786062;29;20159;-75
2023/06/12 06:45:46;;;;;;;11.57;4.60;;;36.10;44.50;;;;;;4784898;29;20050;-75
2023/06/12 06:48:13;;;;;;;6.93;3.30;;;36.60;43.50;;;;;;4796628;29;20457;-75
2023/06/12 06:50:39;;;;;;;8.13;2.88;;;37.00;43.60;;;;;;4796300;29;20055;-74
2023/06/12 06:53:05;;;;;;;6.55;3.20;;;37.30;42.90;;;;;;4788529;29;20306;-76
2023/06/12 06:55:32;;;;;;;6.60;2.80;;;37.20;42.40;;;;;;4767962;29;20065;-75
2023/06/12 06:57:58;;;;;;;4.68;3.10;;;37.40;42.20;;;;;;4791344;29;20060;-74
2023/06/12 07:00:26;;;;;;;7.57;3.33;;;37.70;42.20;;;;;;4788296;29;20062;-75
2023/06/12 07:02:53;;;;;;;12.27;3.88;;;37.70;41.20;;;;;;4792547;29;20122;-75
2023/06/12 07:05:20;;;;;;;10.23;3.28;;;37.80;40.90;;;;;;4789110;29;20062;-76
2023/06/12 07:07:47;;;;;;;7.47;3.97;;;38.10;41.50;;;;;;4790282;29;20066;-75
2023/06/12 07:10:14;;;;;;;7.30;3.33;;;38.30;40.30;;;;;;4786531;29;20050;-76
2023/06/12 07:12:40;;;;;;;9.25;3.83;;;38.50;40.20;;;;;;4796717;29;20046;-76
2023/06/12 07:15:07;;;;;;;9.50;3.67;;;38.70;39.90;;;;;;4785252;29;20929;-79
2023/06/12 07:17:33;;;;;;;5.90;2.55;;;38.90;39.20;;;;;;4777422;29;20056;-76
2023/06/12 07:19:58;;;;;;;6.28;3.17;;;39.30;39.70;;;;;;4779855;29;20047;-77
2023/06/12 07:22:24;;;;;;;6.15;3.65;;;39.20;39.30;;;;;;4797391;29;20826;-78
2023/06/12 07:24:51;;;;;;;8.82;3.65;;;39.30;39.10;;;;;;4772110;29;20520;-76
2023/06/12 07:27:16;;;;;;;6.68;3.40;;;39.50;39.10;;;;;;4788580;29;20046;-78
2023/06/12 07:29:42;;;;;;;7.10;3.13;;;39.80;38.90;;;;;;4782499;29;20054;-80
2023/06/12 07:32:09;;;;;;;5.55;3.53;;;39.90;38.80;;;;;;4785672;29;20061;-76
2023/06/12 07:34:35;;;;;;;6.28;3.53;;;40.00;38.60;;;;;;4791515;29;20055;-75
2023/06/12 07:37:02;;;;;;;7.53;3.42;;;40.10;37.60;;;;;;4792796;29;20053;-75
2023/06/12 07:39:28;;;;;;;7.32;2.92;;;40.00;37.90;;;;;;4790746;29;20624;-79
2023/06/12 07:41:54;;;;;;;7.57;4.05;;;40.00;38.30;;;;;;4793683;29;20149;-75
2023/06/12 07:44:21;;;;;;;10.13;3.80;;;39.50;38.10;;;;;;4777244;29;20069;-80
2023/06/12 07:46:47;;;;;;;6.05;3.45;;;39.40;37.80;;;;;;4780682;29;20141;-77
2023/06/12 07:49:14;;;;;;;7.75;3.42;;;39.40;38.10;;;;;;4787859;29;20766;-78
2023/06/12 07:51:40;;;;;;;7.78;3.17;;;39.30;38.10;;;;;;4794326;29;20050;-75
2023/06/12 07:54:06;;;;;;;6.47;3.78;;;39.40;38.70;;;;;;4782355;29;20088;-79
2023/06/12 07:56:32;;;;;;;8.80;3.80;;;39.40;38.00;;;;;;4791851;29;20066;-78
2023/06/12 07:59:09;;;;;;;10.38;4.10;;;39.60;37.90;;;;;;4776552;29;20054;-79
2023/06/12 08:01:36;;;;;;;6.22;3.58;;;40.00;38.50;;;;;;4794990;29;20119;-80
2023/06/12 08:04:05;;;;;;;9.45;3.58;;;40.10;37.40;;;;;;4778029;29;20065;-77
2023/06/12 08:06:34;;;;;;;7.65;3.65;;;40.50;37.60;;;;;;4783644;29;20081;-77
2023/06/12 08:09:00;;;;;;;6.63;3.42;;;41.00;36.50;;;;;;4790728;29;20489;-79
2023/06/12 08:11:26;;;;;;;8.05;3.25;;;41.20;36.60;;;;;;4783480;29;20569;-77
2023/06/12 08:13:52;;;;;;;6.68;3.08;;;41.20;36.70;;;;;;4785536;29;20425;-80
2023/06/12 08:16:18;;;;;;;5.60;3.45;;;41.40;36.70;;;;;;4782772;29;20591;-75
2023/06/12 08:18:45;;;;;;;6.05;3.25;;;41.70;36.30;;;;;;4788727;29;20481;-77
2023/06/12 08:21:11;;;;;;;5.13;3.08;;;41.80;36.40;;;;;;4792974;29;20403;-77
2023/06/12 08:23:36;;;;;;;6.60;3.25;;;42.10;36.40;;;;;;4780481;29;20123;-76
2023/06/12 08:26:04;;;;;;;6.60;2.95;;;42.10;36.40;;;;;;4793433;29;20050;-83
2023/06/12 08:28:32;;;;;;;4.75;3.35;;;42.20;36.10;;;;;;4795170;29;20068;-74
2023/06/12 08:30:59;;;;;;;7.65;2.95;;;42.20;35.30;;;;;;4771800;29;20054;-77
2023/06/12 08:33:25;;;;;;;7.35;2.97;;;42.00;35.40;;;;;;4791783;29;20054;-76
2023/06/12 08:35:51;;;;;;;8.07;3.47;;;42.00;35.00;;;;;;4784784;29;20378;-76
2023/06/12 08:38:17;;;;;;;7.93;3.33;;;42.10;35.00;;;;;;4777190;29;20056;-75
2023/06/12 08:40:45;;;;;;;10.48;3.67;;;42.30;35.20;;;;;;4789836;29;20046;-82
2023/06/12 08:43:11;;;;;;;7.07;3.65;;;42.20;35.00;;;;;;4789759;29;20164;-75
2023/06/12 08:45:45;;;;;;;6.93;3.22;;;42.00;35.10;;;;;;4773738;29;20050;-74
2023/06/12 08:48:15;;;;;;;7.47;3.40;;;41.80;35.60;;;;;;4784579;29;20069;-73
2023/06/12 08:50:42;;;;;;;5.93;4.00;;;41.90;35.30;;;;;;4796549;29;20058;-73
2023/06/12 08:53:08;;;;;;;7.80;3.58;;;42.40;34.50;;;;;;4796080;29;20054;-74
2023/06/12 08:55:39;;;;;;;6.13;3.47;;;42.50;34.50;;;;;;4788035;29;20066;-75
2023/06/12 08:58:06;;;;;;;9.27;3.95;;;42.60;34.80;;;;;;4786813;29;20686;-74
2023/06/12 09:00:32;;;;;;;6.68;3.20;;;42.50;34.60;;;;;;4790576;29;20038;-74
2023/06/12 09:03:00;;;;;;;7.10;3.45;;;42.70;34.30;;;;;;4779063;29;20458;-77
2023/06/12 09:05:33;;;;;;;8.50;3.72;;;42.90;34.70;;;;;;4788558;29;20051;-75
2023/06/12 09:08:00;;;;;;;7.15;2.97;;;42.90;34.00;;;;;;4789144;29;20046;-75
2023/06/12 09:10:26;;;;;;;7.45;3.72;;;43.10;33.70;;;;;;4783509;29;20550;-74
2023/06/12 09:12:56;;;;;;;6.53;3.30;;;42.90;33.40;;;;;;4790999;29;20050;-74
2023/06/12 09:15:23;;;;;;;5.78;3.55;;;43.10;33.80;;;;;;4780570;29;20055;-74
2023/06/12 09:17:50;;;;;;;8.57;3.38;;;43.40;33.50;;;;;;4786081;29;20057;-73
2023/06/12 09:20:38;;;;;;;5.95;3.25;;;43.50;33.50;;;;;;4783298;29;20425;-74
2023/06/12 09:23:05;;;;;;;6.07;3.85;;;43.70;33.00;;;;;;4785886;29;20043;-74
2023/06/12 09:25:36;;;;;;;7.22;4.38;;;43.80;33.40;;;;;;4781681;29;20073;-77
2023/06/12 09:28:03;;;;;;;7.30;3.20;;;43.80;33.00;;;;;;4787129;29;20094;-77
2023/06/12 09:30:32;;;;;;;8.77;3.88;;;43.70;33.90;;;;;;4794317;29;20081;-72
2023/06/12 09:33:02;;;;;;;5.88;2.95;;;43.50;33.50;;;;;;4792502;29;20587;-76
2023/06/12 09:35:28;;;;;;;6.22;2.92;;;43.20;33.30;;;;;;4792692;29;20841;-73
2023/06/12 09:37:56;;;;;;;6.88;3.03;;;42.70;34.00;;;;;;4769856;29;20055;-75
2023/06/12 09:40:22;;;;;;;7.40;3.95;;;42.80;34.30;;;;;;4774112;29;20631;-74
2023/06/12 09:42:49;;;;;;;7.22;3.55;;;42.60;33.70;;;;;;4780672;29;20099;-76
2023/06/12 09:45:17;;;;;;;9.23;3.30;;;42.80;34.00;;;;;;4780707;29;20047;-77
2023/06/12 09:47:48;;;;;;;7.53;3.88;;;43.00;33.60;;;;;;4791076;29;20074;-74
2023/06/12 09:50:18;;;;;;;8.18;3.50;;;43.10;33.30;;;;;;4809669;29;20062;-75
2023/06/12 09:52:47;;;;;;;9.48;3.33;;;43.20;33.30;;;;;;4794830;29;20133;-78
2023/06/12 09:55:15;;;;;;;7.93;3.40;;;43.00;33.60;;;;;;4793078;29;20439;-74
2023/06/12 09:57:43;;;;;;;8.60;3.38;;;42.90;33.50;;;;;;4795926;29;20112;-75
2023/06/12 10:00:11;;;;;;;5.07;3.05;;;42.70;34.20;;;;;;4787571;29;20416;-74
2023/06/12 10:02:43;;;;;;;7.70;3.10;;;42.50;34.40;;;;;;4792407;29;20057;-76
2023/06/12 10:05:23;;;;;;;4.68;2.60;;;42.70;34.40;;;;;;4781357;29;20509;-75
2023/06/12 10:07:54;;;;;;;;;;;43.00;35.10;;;;;;4797153;29;20039;-74
2023/06/12 10:10:21;;;;;;;8.23;3.85;;;42.90;34.70;;;;;;4784591;29;19925;-73
2023/06/12 10:12:50;;;;;;;6.18;3.72;;;42.60;33.00;;;;;;4797372;29;20836;-75
2023/06/12 10:15:17;;;;;;;6.60;3.60;;;42.40;33.40;;;;;;4777849;29;20054;-74
2023/06/12 10:17:43;;;;;;;6.95;3.10;;;42.30;32.70;;;;;;4793291;29;20057;-74
2023/06/12 10:20:10;;;;;;;6.78;3.20;;;42.30;33.80;;;;;;4794040;29;20485;-74
2023/06/12 10:22:37;;;;;;;6.13;3.53;;;42.50;34.00;;;;;;4785024;29;20085;-80
2023/06/12 10:25:05;;;;;;;8.50;3.67;;;42.40;34.10;;;;;;4791841;29;20533;-76
2023/06/12 10:27:31;;;;;;;7.35;3.22;;;42.20;33.60;;;;;;4792112;29;20111;-74
2023/06/12 10:29:59;;;;;;;6.18;2.88;;;42.30;34.50;;;;;;4775905;29;20055;-78
2023/06/12 10:32:32;;;;;;;6.95;3.38;;;42.70;33.50;;;;;;4789920;29;20150;-74
2023/06/12 10:34:59;;;;;;;4.90;3.47;;;42.80;33.40;;;;;;4775981;29;20412;-76
2023/06/12 10:37:33;;;;;;;6.03;2.60;;;42.50;33.30;;;;;;4777424;29;20042;-76
2023/06/12 10:40:16;;;;;;;6.07;3.15;;;42.30;34.20;;;;;;4793189;29;20058;-74
2023/06/12 10:42:43;;;;;;;4.15;2.90;;;42.10;33.80;;;;;;4781935;29;20054;-75
2023/06/12 10:45:18;;;;;;;6.07;3.60;;;41.70;32.50;;;;;;4790731;29;20493;-76
2023/06/12 10:48:05;;;;;;;8.63;3.38;;;41.50;33.50;;;;;;4805290;29;20534;-75
2023/06/12 10:50:35;;;;;;;6.72;3.60;;;40.80;32.50;;;;;;4783042;29;20058;-76
2023/06/12 10:53:06;;;;;;;4.20;3.15;;;39.70;32.90;;;;;;4788609;29;20296;-77
2023/06/12 10:55:32;;;;;;;;;;;39.20;34.90;;;;;;4774971;29;20184;-74
2023/06/12 10:58:19;;;;;;;5.80;3.92;;;38.20;35.90;;;;;;4790716;29;19969;-77
2023/06/12 11:00:49;;;;;;;5.63;4.05;;;37.40;34.50;;;;;;4781506;29;20058;-75
2023/06/12 11:03:17;;;;;;;6.50;4.43;;;36.60;36.10;;;;;;4785201;29;20055;-73
2023/06/12 11:05:51;;;;;;;8.23;3.83;;;35.80;34.70;;;;;;4783405;29;20301;-73
2023/06/12 11:08:23;;;;;;;7.35;3.67;;;35.10;35.60;;;;;;4786622;29;20069;-73
2023/06/12 11:10:49;;;;;;;5.60;3.70;;;34.80;37.20;;;;;;4788775;29;20055;-74
2023/06/12 11:13:15;;;;;;;9.05;4.20;;;34.50;37.60;;;;;;4804616;29;20051;-79
2023/06/12 11:15:43;;;;;;;7.40;4.05;;;34.20;39.60;;;;;;4793096;29;20046;-75
2023/06/12 11:18:10;;;;;;;7.82;4.32;;;33.80;37.50;;;;;;4790733;29;20843;-76
2023/06/12 11:20:36;;;;;;;5.50;4.13;;;33.30;36.70;;;;;;4790283;29;20135;-79
2023/06/12 11:23:02;;;;;;;6.20;4.03;;;33.00;37.40;;;;;;4788146;29;20046;-78
2023/06/12 11:25:46;;;;;;;6.32;4.63;;;32.60;38.80;;;;;;4785657;29;20043;-76
2023/06/12 11:28:13;;;;;;;5.25;3.90;;;32.40;39.20;;;;;;4789725;29;20066;-74
2023/06/12 11:30:40;;;;;;;7.35;4.60;;;32.40;39.30;;;;;;4781165;29;20118;-80
2023/06/12 11:33:13;;;;;;;6.80;4.63;;;32.30;40.80;;;;;;4780600;29;20046;-77
2023/06/12 11:35:40;;;;;;;7.78;4.10;;;32.20;40.50;;;;;;4779463;29;20642;-79
2023/06/12 11:38:07;;;;;;;6.88;4.32;;;32.20;39.60;;;;;;4779180;29;20108;-74
2023/06/12 11:40:33;;;;;;;6.60;3.90;;;32.10;40.20;;;;;;4766032;29;20159;-75
2023/06/12 11:42:59;;;;;;;7.35;4.70;;;32.00;40.40;;;;;;4773460;29;20485;-75
2023/06/12 11:45:25;;;;;;;4.80;4.22;;;31.80;40.20;;;;;;4786500;29;20054;-76
2023/06/12 11:47:51;;;;;;;6.70;4.03;;;31.60;40.60;;;;;;4777835;29;20050;-82
2023/06/12 11:50:18;;;;;;;11.88;5.15;;;31.20;41.30;;;;;;4778527;29;20065;-82
2023/06/12 11:52:45;;;;;;;7.90;5.13;;;30.90;42.10;;;;;;4791771;29;20400;-81
2023/06/12 11:55:13;;;;;;;7.65;4.53;;;30.70;42.10;;;;;;4775186;29;20129;-79
2023/06/12 11:57:39;;;;;;;7.18;4.93;;;30.60;43.40;;;;;;4783653;29;20494;-77
2023/06/12 12:00:12;;;;;;;7.22;4.35;;;30.50;42.60;;;;;;4787961;29;20841;-77
2023/06/12 12:02:41;;;;;;;5.28;4.20;;;30.40;42.40;;;;;;4789864;29;20488;-79
2023/06/12 12:05:11;;;;;;;5.55;4.53;;;30.30;42.80;;;;;;4789565;29;20122;-74
2023/06/12 12:07:39;;;;;;;4.43;4.03;;;30.10;41.40;;;;;;4779485;29;20054;-77
2023/06/12 12:10:10;;;;;;;5.45;4.75;;;29.90;41.20;;;;;;4787424;29;20054;-75
2023/06/12 12:12:51;;;;;;;7.80;4.70;;;29.80;42.30;;;;;;4791763;29;20046;-76
2023/06/12 12:15:20;;;;;;;6.18;4.28;;;29.80;43.10;;;;;;4791039;29;20059;-73
2023/06/12 12:17:47;;;;;;;6.88;4.90;;;29.80;43.10;;;;;;4791029;29;20065;-74
2023/06/12 12:20:23;;;;;;;9.38;4.75;;;29.80;43.60;;;;;;4789353;29;20083;-81
2023/06/12 12:22:51;;;;;;;10.15;4.63;;;29.80;42.10;;;;;;4770368;29;20413;-80
2023/06/12 12:25:26;;;;;;;5.38;4.00;;;29.60;40.00;;;;;;4789007;29;20137;-75
2023/06/12 12:27:53;;;;;;;9.32;4.85;;;29.30;40.20;;;;;;4786572;29;20085;-77
2023/06/12 12:30:21;;;;;;;5.15;4.30;;;29.20;40.60;;;;;;4778687;29;20093;-75
2023/06/12 12:32:49;;;;;;;6.43;4.65;;;29.20;40.70;;;;;;4784147;29;20121;-79
2023/06/12 12:35:15;;;;;;;6.43;4.38;;;29.30;40.00;;;;;;4776760;29;20046;-76
2023/06/12 12:37:42;;;;;;;7.43;4.82;;;29.40;39.90;;;;;;4791053;29;20142;-79
2023/06/12 12:40:10;;;;;;;6.25;4.55;;;29.30;40.20;;;;;;4789929;29;20495;-76
2023/06/12 12:42:46;;;;;;;5.25;4.45;;;29.30;41.40;;;;;;4792163;29;20524;-75
2023/06/12 12:45:15;;;;;;;5.00;4.50;;;29.40;40.80;;;;;;4792054;29;20062;-77
2023/06/12 12:47:41;;;;;;;7.93;5.68;;;29.50;41.50;;;;;;4786651;29;20066;-80
2023/06/12 12:50:08;;;;;;;7.80;5.03;;;29.60;41.50;;;;;;4780390;29;20062;-77